sensor_id;sensor_type;location;lat;lon;timestamp;pressure;altitude;pressure_sealevel;temperature;humidity
61571;BME280;47463;49.884;10.010;2022-09-09T00:00:01;101635;;;14.6;77
61571;BME280;47463;49.884;10.010;2022-09-09T00:05:04;101637;;;14.5;77
61571;BME280;47463;49.884;10.010;2022-09-09T00:10:03;101640;;;14.4;77
61571;BME280;47463;49.884;10.010;2022-09-09T00:15:02;101647;;;14.5;77
61571;BME280;47463;49.884;10.010;2022-09-09T00:20:01;101643;;;14.5;77
61571;BME280;47463;49.884;10.010;2022-09-09T00:25:02;101647;;;14.5;77
61571;BME280;47463;49.884;10.010;2022-09-09T00:30:12;101633;;;14.4;77
61571;BME280;47463;49.884;10.010;2022-09-09T00:35:02;101639;;;14.4;77
61571;BME280;47463;49.884;10.010;2022-09-09T00:40:01;101660;;;14.3;78
61571;BME280;47463;49.884;10.010;2022-09-09T00:45:02;101657;;;14.3;78
61571;BME280;47463;49.884;10.010;2022-09-09T00:50:03;101633;;;14.2;79
61571;BME280;47463;49.884;10.010;2022-09-09T00:55:03;101640;;;14;79
61571;BME280;47463;49.884;10.010;2022-09-09T01:00:16;101647;;;13.9;79
61571;BME280;47463;49.884;10.010;2022-09-09T01:05:02;101644;;;13.8;79
61571;BME280;47463;49.884;10.010;2022-09-09T01:10:01;101634;;;13.8;80
61571;BME280;47463;49.884;10.010;2022-09-09T01:15:03;101626;;;13.7;80
61571;BME280;47463;49.884;10.010;2022-09-09T01:20:04;101632;;;13.7;80
61571;BME280;47463;49.884;10.010;2022-09-09T01:25:08;101647;;;13.7;80
61571;BME280;47463;49.884;10.010;2022-09-09T01:30:01;101643;;;13.6;81
61571;BME280;47463;49.884;10.010;2022-09-09T01:35:01;101650;;;13.5;81
61571;BME280;47463;49.884;10.010;2022-09-09T01:40:01;101647;;;13.5;81
61571;BME280;47463;49.884;10.010;2022-09-09T01:45:01;101641;;;13.6;80
61571;BME280;47463;49.884;10.010;2022-09-09T01:50:01;101646;;;13.5;81
61571;BME280;47463;49.884;10.010;2022-09-09T01:55:01;101651;;;13.4;81
61571;BME280;47463;49.884;10.010;2022-09-09T02:00:02;101649;;;13.4;82
61571;BME280;47463;49.884;10.010;2022-09-09T02:05:03;101657;;;13.4;82
61571;BME280;47463;49.884;10.010;2022-09-09T02:10:01;101657;;;13.5;82
61571;BME280;47463;49.884;10.010;2022-09-09T02:15:04;101665;;;13.6;81
61571;BME280;47463;49.884;10.010;2022-09-09T02:20:03;101661;;;13.7;81
61571;BME280;47463;49.884;10.010;2022-09-09T02:25:01;101662;;;13.7;81
61571;BME280;47463;49.884;10.010;2022-09-09T02:30:01;101662;;;13.8;81
61571;BME280;47463;49.884;10.010;2022-09-09T02:35:02;101653;;;13.8;80
61571;BME280;47463;49.884;10.010;2022-09-09T02:40:01;101649;;;13.8;80
61571;BME280;47463;49.884;10.010;2022-09-09T02:45:01;101650;;;13.8;80
61571;BME280;47463;49.884;10.010;2022-09-09T02:50:03;101648;;;13.8;81
61571;BME280;47463;49.884;10.010;2022-09-09T02:55:04;101646;;;13.9;81
61571;BME280;47463;49.884;10.010;2022-09-09T03:00:01;101646;;;13.9;80
61571;BME280;47463;49.884;10.010;2022-09-09T03:05:01;101649;;;13.9;81
61571;BME280;47463;49.884;10.010;2022-09-09T03:10:01;101646;;;13.8;81
61571;BME280;47463;49.884;10.010;2022-09-09T03:15:01;101646;;;13.8;81
61571;BME280;47463;49.884;10.010;2022-09-09T03:20:01;101644;;;13.9;81
61571;BME280;47463;49.884;10.010;2022-09-09T03:25:01;101643;;;13.9;81
61571;BME280;47463;49.884;10.010;2022-09-09T03:30:01;101651;;;13.9;81
61571;BME280;47463;49.884;10.010;2022-09-09T03:35:01;101651;;;13.9;80
61571;BME280;47463;49.884;10.010;2022-09-09T03:40:01;101639;;;14;80
61571;BME280;47463;49.884;10.010;2022-09-09T03:45:01;101647;;;14;80
61571;BME280;47463;49.884;10.010;2022-09-09T03:50:01;101635;;;13.9;80
61571;BME280;47463;49.884;10.010;2022-09-09T03:55:01;101630;;;13.9;81
61571;BME280;47463;49.884;10.010;2022-09-09T04:00:01;101628;;;13.9;81
61571;BME280;47463;49.884;10.010;2022-09-09T04:05:01;101621;;;13.8;81
61571;BME280;47463;49.884;10.010;2022-09-09T04:10:01;101615;;;13.8;81
61571;BME280;47463;49.884;10.010;2022-09-09T04:15:01;101619;;;13.8;81
61571;BME280;47463;49.884;10.010;2022-09-09T04:20:01;101620;;;13.6;82
61571;BME280;47463;49.884;10.010;2022-09-09T04:25:01;101619;;;13.6;82
61571;BME280;47463;49.884;10.010;2022-09-09T04:30:01;101620;;;13.8;81
61571;BME280;47463;49.884;10.010;2022-09-09T04:35:01;101627;;;13.8;81
61571;BME280;47463;49.884;10.010;2022-09-09T04:40:01;101632;;;13.8;81
61571;BME280;47463;49.884;10.010;2022-09-09T04:45:01;101631;;;13.8;81
61571;BME280;47463;49.884;10.010;2022-09-09T04:50:01;101632;;;13.7;81
61571;BME280;47463;49.884;10.010;2022-09-09T04:55:01;101632;;;13.6;82
61571;BME280;47463;49.884;10.010;2022-09-09T05:00:01;101637;;;13.6;82
61571;BME280;47463;49.884;10.010;2022-09-09T05:05:01;101642;;;13.5;82
61571;BME280;47463;49.884;10.010;2022-09-09T05:10:01;101641;;;13.5;82
61571;BME280;47463;49.884;10.010;2022-09-09T05:15:01;101645;;;13.6;82
61571;BME280;47463;49.884;10.010;2022-09-09T05:20:01;101639;;;13.7;81
61571;BME280;47463;49.884;10.010;2022-09-09T05:25:01;101647;;;13.8;81
61571;BME280;47463;49.884;10.010;2022-09-09T05:30:01;101652;;;13.7;81
61571;BME280;47463;49.884;10.010;2022-09-09T05:35:01;101669;;;13.8;81
61571;BME280;47463;49.884;10.010;2022-09-09T05:40:01;101679;;;14;80
61571;BME280;47463;49.884;10.010;2022-09-09T05:45:01;101680;;;14.3;80
61571;BME280;47463;49.884;10.010;2022-09-09T05:50:01;101675;;;14.6;79
61571;BME280;47463;49.884;10.010;2022-09-09T05:55:01;101681;;;14.5;79
61571;BME280;47463;49.884;10.010;2022-09-09T06:00:01;101684;;;14.6;79
61571;BME280;47463;49.884;10.010;2022-09-09T06:05:01;101687;;;14.7;79
61571;BME280;47463;49.884;10.010;2022-09-09T06:10:01;101683;;;14.8;78
61571;BME280;47463;49.884;10.010;2022-09-09T06:15:01;101679;;;14.9;78
61571;BME280;47463;49.884;10.010;2022-09-09T06:20:01;101673;;;15;78
61571;BME280;47463;49.884;10.010;2022-09-09T06:25:01;101676;;;15;78
61571;BME280;47463;49.884;10.010;2022-09-09T06:30:01;101680;;;15;78
61571;BME280;47463;49.884;10.010;2022-09-09T06:35:01;101680;;;15.1;78
61571;BME280;47463;49.884;10.010;2022-09-09T06:40:01;101677;;;15.1;78
61571;BME280;47463;49.884;10.010;2022-09-09T06:45:01;101677;;;15.2;78
61571;BME280;47463;49.884;10.010;2022-09-09T06:50:01;101678;;;15.2;77
61571;BME280;47463;49.884;10.010;2022-09-09T06:55:01;101681;;;15.2;77
61571;BME280;47463;49.884;10.010;2022-09-09T07:00:01;101679;;;15.3;77
61571;BME280;47463;49.884;10.010;2022-09-09T07:05:01;101688;;;15.3;76
61571;BME280;47463;49.884;10.010;2022-09-09T07:10:01;101686;;;15.4;76
61571;BME280;47463;49.884;10.010;2022-09-09T07:15:01;101684;;;15.4;77
61571;BME280;47463;49.884;10.010;2022-09-09T07:20:01;101694;;;15.4;76
61571;BME280;47463;49.884;10.010;2022-09-09T07:25:01;101699;;;15.8;76
61571;BME280;47463;49.884;10.010;2022-09-09T07:30:01;101678;;;16.2;75
61571;BME280;47463;49.884;10.010;2022-09-09T07:35:01;101684;;;16.5;74
61571;BME280;47463;49.884;10.010;2022-09-09T07:40:01;101678;;;16.8;73
61571;BME280;47463;49.884;10.010;2022-09-09T07:45:01;101656;;;17.3;72
61571;BME280;47463;49.884;10.010;2022-09-09T07:50:01;101650;;;17.3;72
61571;BME280;47463;49.884;10.010;2022-09-09T07:55:01;101664;;;17.4;72
61571;BME280;47463;49.884;10.010;2022-09-09T08:00:01;101664;;;17.8;71
61571;BME280;47463;49.884;10.010;2022-09-09T08:05:01;101648;;;18.1;70
61571;BME280;47463;49.884;10.010;2022-09-09T08:10:01;101632;;;18.1;70
61571;BME280;47463;49.884;10.010;2022-09-09T08:15:01;101630;;;18;70
61571;BME280;47463;49.884;10.010;2022-09-09T08:20:01;101647;;;18.1;70
61571;BME280;47463;49.884;10.010;2022-09-09T08:25:01;101637;;;18.2;69
61571;BME280;47463;49.884;10.010;2022-09-09T08:30:01;101635;;;18.2;69
61571;BME280;47463;49.884;10.010;2022-09-09T08:35:01;101625;;;18.2;69
61571;BME280;47463;49.884;10.010;2022-09-09T08:40:01;101630;;;18;70
61571;BME280;47463;49.884;10.010;2022-09-09T08:45:05;101638;;;18.5;69
61571;BME280;47463;49.884;10.010;2022-09-09T08:50:05;101633;;;18.8;68
61571;BME280;47463;49.884;10.010;2022-09-09T08:55:02;101624;;;18.6;68
61571;BME280;47463;49.884;10.010;2022-09-09T09:00:01;101619;;;18.8;68
61571;BME280;47463;49.884;10.010;2022-09-09T09:05:06;101617;;;18.7;68
61571;BME280;47463;49.884;10.010;2022-09-09T09:10:02;101620;;;18.7;68
61571;BME280;47463;49.884;10.010;2022-09-09T09:15:01;101614;;;18.8;68
61571;BME280;47463;49.884;10.010;2022-09-09T09:20:01;101611;;;19.1;68
61571;BME280;47463;49.884;10.010;2022-09-09T09:25:02;101593;;;19;67
61571;BME280;47463;49.884;10.010;2022-09-09T09:30:02;101595;;;19;67
61571;BME280;47463;49.884;10.010;2022-09-09T09:35:01;101588;;;19;67
61571;BME280;47463;49.884;10.010;2022-09-09T09:40:08;101587;;;19;67
61571;BME280;47463;49.884;10.010;2022-09-09T09:45:07;101578;;;19;67
61571;BME280;47463;49.884;10.010;2022-09-09T09:50:01;101579;;;19;67
61571;BME280;47463;49.884;10.010;2022-09-09T09:55:02;101562;;;20.2;66
61571;BME280;47463;49.884;10.010;2022-09-09T10:00:02;101553;;;20.6;64
61571;BME280;47463;49.884;10.010;2022-09-09T10:05:02;101544;;;20.7;64
61571;BME280;47463;49.884;10.010;2022-09-09T10:10:01;101538;;;21.1;61
61571;BME280;47463;49.884;10.010;2022-09-09T10:15:02;101530;;;21;61
61571;BME280;47463;49.884;10.010;2022-09-09T10:20:06;101530;;;20.7;61
61571;BME280;47463;49.884;10.010;2022-09-09T10:25:08;101520;;;20.7;61
61571;BME280;47463;49.884;10.010;2022-09-09T10:30:03;101505;;;20.8;60
61571;BME280;47463;49.884;10.010;2022-09-09T10:35:02;101492;;;20.8;60
61571;BME280;47463;49.884;10.010;2022-09-09T10:40:02;101499;;;20.4;60
61571;BME280;47463;49.884;10.010;2022-09-09T10:45:04;101515;;;19.5;64
61571;BME280;47463;49.884;10.010;2022-09-09T10:50:09;101533;;;19.1;66
61571;BME280;47463;49.884;10.010;2022-09-09T10:55:03;101597;;;16.8;70
61571;BME280;47463;49.884;10.010;2022-09-09T11:00:02;101624;;;15.4;75
61571;BME280;47463;49.884;10.010;2022-09-09T11:05:02;101646;;;14.7;76
61571;BME280;47463;49.884;10.010;2022-09-09T11:10:01;101659;;;14.2;78
61571;BME280;47463;49.884;10.010;2022-09-09T11:15:03;101662;;;14.2;78
61571;BME280;47463;49.884;10.010;2022-09-09T11:20:01;101655;;;14.2;78
61571;BME280;47463;49.884;10.010;2022-09-09T11:25:01;101653;;;14.6;77
61571;BME280;47463;49.884;10.010;2022-09-09T11:30:18;101665;;;15.1;77
61571;BME280;47463;49.884;10.010;2022-09-09T11:35:02;101670;;;15.8;76
61571;BME280;47463;49.884;10.010;2022-09-09T11:40:07;101672;;;16.3;75
61571;BME280;47463;49.884;10.010;2022-09-09T11:45:08;101673;;;16.8;74
61571;BME280;47463;49.884;10.010;2022-09-09T11:50:09;101682;;;17.2;73
61571;BME280;47463;49.884;10.010;2022-09-09T11:55:08;101686;;;17.4;73
61571;BME280;47463;49.884;10.010;2022-09-09T12:00:01;101685;;;17.7;74
61571;BME280;47463;49.884;10.010;2022-09-09T12:05:02;101678;;;17.7;74
61571;BME280;47463;49.884;10.010;2022-09-09T12:10:02;101673;;;18.7;73
61571;BME280;47463;49.884;10.010;2022-09-09T12:15:20;101656;;;18.8;73
61571;BME280;47463;49.884;10.010;2022-09-09T12:20:03;101657;;;18.5;73
61571;BME280;47463;49.884;10.010;2022-09-09T12:25:03;101657;;;18.4;73
61571;BME280;47463;49.884;10.010;2022-09-09T12:30:01;101654;;;18.5;74
61571;BME280;47463;49.884;10.010;2022-09-09T12:35:02;101644;;;18.5;74
61571;BME280;47463;49.884;10.010;2022-09-09T12:40:01;101631;;;18.8;73
61571;BME280;47463;49.884;10.010;2022-09-09T12:45:02;101637;;;19;73
61571;BME280;47463;49.884;10.010;2022-09-09T12:50:01;101629;;;18.9;72
61571;BME280;47463;49.884;10.010;2022-09-09T12:55:01;101626;;;19;72
61571;BME280;47463;49.884;10.010;2022-09-09T13:00:05;101610;;;19.1;72
61571;BME280;47463;49.884;10.010;2022-09-09T13:05:06;101612;;;19.5;71
61571;BME280;47463;49.884;10.010;2022-09-09T13:10:01;101600;;;19.9;70
61571;BME280;47463;49.884;10.010;2022-09-09T13:15:01;101585;;;20.4;67
61571;BME280;47463;49.884;10.010;2022-09-09T13:20:01;101550;;;20.4;67
61571;BME280;47463;49.884;10.010;2022-09-09T13:25:02;101548;;;20.3;66
61571;BME280;47463;49.884;10.010;2022-09-09T13:30:01;101549;;;20.8;66
61571;BME280;47463;49.884;10.010;2022-09-09T13:35:01;101515;;;20.3;64
61571;BME280;47463;49.884;10.010;2022-09-09T13:40:02;101509;;;20.2;65
61571;BME280;47463;49.884;10.010;2022-09-09T13:45:01;101498;;;20.1;64
61571;BME280;47463;49.884;10.010;2022-09-09T13:50:09;101494;;;20.4;65
61571;BME280;47463;49.884;10.010;2022-09-09T13:55:01;101491;;;20.8;62
61571;BME280;47463;49.884;10.010;2022-09-09T14:00:01;101468;;;20.9;61
61571;BME280;47463;49.884;10.010;2022-09-09T14:05:01;101445;;;20.8;59
61571;BME280;47463;49.884;10.010;2022-09-09T14:10:01;101443;;;20.7;59
61571;BME280;47463;49.884;10.010;2022-09-09T14:15:01;101444;;;20.7;59
61571;BME280;47463;49.884;10.010;2022-09-09T14:20:01;101425;;;20.8;58
61571;BME280;47463;49.884;10.010;2022-09-09T14:25:01;101433;;;20.6;58
61571;BME280;47463;49.884;10.010;2022-09-09T14:30:01;101433;;;20.5;59
61571;BME280;47463;49.884;10.010;2022-09-09T14:35:01;101431;;;20.4;58
61571;BME280;47463;49.884;10.010;2022-09-09T14:40:01;101416;;;20.6;58
61571;BME280;47463;49.884;10.010;2022-09-09T14:45:01;101428;;;20.6;59
61571;BME280;47463;49.884;10.010;2022-09-09T14:50:01;101423;;;20.2;60
61571;BME280;47463;49.884;10.010;2022-09-09T14:55:01;101437;;;20;60
61571;BME280;47463;49.884;10.010;2022-09-09T15:00:01;101456;;;18.2;67
61571;BME280;47463;49.884;10.010;2022-09-09T15:05:01;101484;;;17.3;70
61571;BME280;47463;49.884;10.010;2022-09-09T15:10:01;101511;;;17.2;72
61571;BME280;47463;49.884;10.010;2022-09-09T15:15:01;101509;;;16.9;71
61571;BME280;47463;49.884;10.010;2022-09-09T15:20:01;101500;;;17.1;70
61571;BME280;47463;49.884;10.010;2022-09-09T15:25:01;101507;;;17.1;70
61571;BME280;47463;49.884;10.010;2022-09-09T15:30:01;101505;;;17.2;72
61571;BME280;47463;49.884;10.010;2022-09-09T15:35:01;101509;;;17.3;73
61571;BME280;47463;49.884;10.010;2022-09-09T15:40:01;101506;;;17.3;73
61571;BME280;47463;49.884;10.010;2022-09-09T15:45:01;101510;;;17.9;71
61571;BME280;47463;49.884;10.010;2022-09-09T15:50:01;101510;;;17.9;71
61571;BME280;47463;49.884;10.010;2022-09-09T15:55:01;101497;;;18.5;69
61571;BME280;47463;49.884;10.010;2022-09-09T16:00:01;101490;;;19;67
61571;BME280;47463;49.884;10.010;2022-09-09T16:05:01;101484;;;19.3;65
61571;BME280;47463;49.884;10.010;2022-09-09T16:10:01;101493;;;19;66
61571;BME280;47463;49.884;10.010;2022-09-09T16:15:01;101501;;;18.7;68
61571;BME280;47463;49.884;10.010;2022-09-09T16:20:01;101494;;;18;73
61571;BME280;47463;49.884;10.010;2022-09-09T16:25:01;101527;;;18;73
61571;BME280;47463;49.884;10.010;2022-09-09T16:30:01;101534;;;17.7;74
61571;BME280;47463;49.884;10.010;2022-09-09T16:35:01;101552;;;17.7;74
61571;BME280;47463;49.884;10.010;2022-09-09T16:40:01;101560;;;17.6;75
61571;BME280;47463;49.884;10.010;2022-09-09T16:45:01;101566;;;17.6;75
61571;BME280;47463;49.884;10.010;2022-09-09T16:50:01;101562;;;17.4;75
61571;BME280;47463;49.884;10.010;2022-09-09T16:55:01;101563;;;17.3;75
61571;BME280;47463;49.884;10.010;2022-09-09T17:00:01;101576;;;17.2;75
61571;BME280;47463;49.884;10.010;2022-09-09T17:05:01;101585;;;17.1;75
61571;BME280;47463;49.884;10.010;2022-09-09T17:10:01;101581;;;17;75
61571;BME280;47463;49.884;10.010;2022-09-09T17:15:01;101593;;;16.9;75
61571;BME280;47463;49.884;10.010;2022-09-09T17:20:01;101585;;;16.7;75
61571;BME280;47463;49.884;10.010;2022-09-09T17:25:01;101606;;;16.6;75
61571;BME280;47463;49.884;10.010;2022-09-09T17:30:01;101599;;;16.6;75
61571;BME280;47463;49.884;10.010;2022-09-09T17:35:01;101604;;;16.5;75
61571;BME280;47463;49.884;10.010;2022-09-09T17:40:01;101610;;;16.5;75
61571;BME280;47463;49.884;10.010;2022-09-09T17:45:01;101593;;;16.5;75
61571;BME280;47463;49.884;10.010;2022-09-09T17:50:01;101607;;;16.8;73
61571;BME280;47463;49.884;10.010;2022-09-09T17:55:01;101594;;;16.9;73
61571;BME280;47463;49.884;10.010;2022-09-09T18:00:01;101589;;;17;72
61571;BME280;47463;49.884;10.010;2022-09-09T18:05:01;101601;;;16.9;71
61571;BME280;47463;49.884;10.010;2022-09-09T18:10:01;101595;;;16.9;71
61571;BME280;47463;49.884;10.010;2022-09-09T18:15:01;101600;;;16.9;71
61571;BME280;47463;49.884;10.010;2022-09-09T18:20:01;101603;;;16.8;71
61571;BME280;47463;49.884;10.010;2022-09-09T18:25:01;101615;;;16.6;72
61571;BME280;47463;49.884;10.010;2022-09-09T18:30:01;101622;;;16.5;72
61571;BME280;47463;49.884;10.010;2022-09-09T18:35:01;101617;;;16.5;73
61571;BME280;47463;49.884;10.010;2022-09-09T18:40:01;101615;;;16.3;73
61571;BME280;47463;49.884;10.010;2022-09-09T18:45:01;101621;;;16.2;73
61571;BME280;47463;49.884;10.010;2022-09-09T18:50:01;101629;;;16.1;74
61571;BME280;47463;49.884;10.010;2022-09-09T18:55:01;101651;;;15.1;78
61571;BME280;47463;49.884;10.010;2022-09-09T19:00:01;101656;;;14.8;79
61571;BME280;47463;49.884;10.010;2022-09-09T19:05:01;101675;;;14.6;79
61571;BME280;47463;49.884;10.010;2022-09-09T19:10:01;101697;;;14.4;79
61571;BME280;47463;49.884;10.010;2022-09-09T19:15:01;101702;;;14.5;78
61571;BME280;47463;49.884;10.010;2022-09-09T19:20:01;101705;;;14.1;80
61571;BME280;47463;49.884;10.010;2022-09-09T19:25:01;101705;;;13.9;80
61571;BME280;47463;49.884;10.010;2022-09-09T19:30:01;101733;;;13.8;81
61571;BME280;47463;49.884;10.010;2022-09-09T19:35:01;101721;;;13.7;81
61571;BME280;47463;49.884;10.010;2022-09-09T19:40:01;101730;;;14.1;79
61571;BME280;47463;49.884;10.010;2022-09-09T19:45:01;101721;;;14.4;78
61571;BME280;47463;49.884;10.010;2022-09-09T19:50:01;101718;;;14.5;78
61571;BME280;47463;49.884;10.010;2022-09-09T19:55:01;101733;;;14.2;78
61571;BME280;47463;49.884;10.010;2022-09-09T20:00:01;101740;;;14.3;78
61571;BME280;47463;49.884;10.010;2022-09-09T20:05:01;101744;;;14.4;78
61571;BME280;47463;49.884;10.010;2022-09-09T20:10:01;101750;;;14.2;78
61571;BME280;47463;49.884;10.010;2022-09-09T20:15:01;101758;;;14;79
61571;BME280;47463;49.884;10.010;2022-09-09T20:20:01;101759;;;14.1;79
61571;BME280;47463;49.884;10.010;2022-09-09T20:25:01;101765;;;14.1;79
61571;BME280;47463;49.884;10.010;2022-09-09T20:30:01;101766;;;14.3;79
61571;BME280;47463;49.884;10.010;2022-09-09T20:35:01;101754;;;14.4;78
61571;BME280;47463;49.884;10.010;2022-09-09T20:40:01;101754;;;14.4;78
61571;BME280;47463;49.884;10.010;2022-09-09T20:45:01;101771;;;14.2;79
61571;BME280;47463;49.884;10.010;2022-09-09T20:50:01;101783;;;14.1;79
61571;BME280;47463;49.884;10.010;2022-09-09T20:55:01;101786;;;14.1;79
61571;BME280;47463;49.884;10.010;2022-09-09T21:00:01;101783;;;14.1;79
61571;BME280;47463;49.884;10.010;2022-09-09T21:05:01;101780;;;14.2;79
61571;BME280;47463;49.884;10.010;2022-09-09T21:10:01;101784;;;14.5;78
61571;BME280;47463;49.884;10.010;2022-09-09T21:15:01;101783;;;14.5;78
61571;BME280;47463;49.884;10.010;2022-09-09T21:20:01;101784;;;14.5;78
61571;BME280;47463;49.884;10.010;2022-09-09T21:25:01;101788;;;14.5;78
61571;BME280;47463;49.884;10.010;2022-09-09T21:30:01;101800;;;14.3;79
61571;BME280;47463;49.884;10.010;2022-09-09T21:35:01;101802;;;14.3;79
61571;BME280;47463;49.884;10.010;2022-09-09T21:40:01;101811;;;14.3;79
61571;BME280;47463;49.884;10.010;2022-09-09T21:45:01;101810;;;14.3;79
61571;BME280;47463;49.884;10.010;2022-09-09T21:50:01;101807;;;14.5;78
61571;BME280;47463;49.884;10.010;2022-09-09T21:55:01;101816;;;14.6;77
61571;BME280;47463;49.884;10.010;2022-09-09T22:00:01;101813;;;14.7;76
61571;BME280;47463;49.884;10.010;2022-09-09T22:05:01;101824;;;14.7;76
61571;BME280;47463;49.884;10.010;2022-09-09T22:10:01;101822;;;14.7;76
61571;BME280;47463;49.884;10.010;2022-09-09T22:15:01;101829;;;14.7;75
61571;BME280;47463;49.884;10.010;2022-09-09T22:20:01;101826;;;14.6;76
61571;BME280;47463;49.884;10.010;2022-09-09T22:25:01;101823;;;14.6;76
61571;BME280;47463;49.884;10.010;2022-09-09T22:30:01;101828;;;14.5;76
61571;BME280;47463;49.884;10.010;2022-09-09T22:35:01;101832;;;14.4;77
61571;BME280;47463;49.884;10.010;2022-09-09T22:40:01;101829;;;14.3;77
61571;BME280;47463;49.884;10.010;2022-09-09T22:45:01;101830;;;14.3;78
61571;BME280;47463;49.884;10.010;2022-09-09T22:50:01;101828;;;14.2;79
61571;BME280;47463;49.884;10.010;2022-09-09T22:55:01;101822;;;14.1;79
61571;BME280;47463;49.884;10.010;2022-09-09T23:00:01;101831;;;14;80
61571;BME280;47463;49.884;10.010;2022-09-09T23:05:01;101831;;;14;80
61571;BME280;47463;49.884;10.010;2022-09-09T23:10:01;101828;;;14;80
61571;BME280;47463;49.884;10.010;2022-09-09T23:15:01;101843;;;13.9;80
61571;BME280;47463;49.884;10.010;2022-09-09T23:20:01;101852;;;13.9;81
61571;BME280;47463;49.884;10.010;2022-09-09T23:25:01;101854;;;13.8;81
61571;BME280;47463;49.884;10.010;2022-09-09T23:30:01;101858;;;13.8;81
61571;BME280;47463;49.884;10.010;2022-09-09T23:35:01;101857;;;13.8;81
61571;BME280;47463;49.884;10.010;2022-09-09T23:40:01;101864;;;13.8;81
61571;BME280;47463;49.884;10.010;2022-09-09T23:45:01;101866;;;13.8;81
61571;BME280;47463;49.884;10.010;2022-09-09T23:50:01;101863;;;13.8;81
61571;BME280;47463;49.884;10.010;2022-09-09T23:55:01;101859;;;13.8;81
